DAL600 KATL-MWCR
Flight info
| Callsign | DAL600 |
|---|---|
| Flight time | N/A |
| Altitude | 35000 |
| Route | SMLTZ3 WALET DCT ZPLEN Q79 VAULT/N0450F360 Q79 MCLAW Y442 FUNDI/N0450F370 UM335 ALVEK UM328 UCL/N0451F360 DCT LACET UL465 GCM DCT |
| Aircraft | B738/M-SDE2E3FGHIRWXY/LB1 |
Departure
| Time | N/A |
|---|---|
| Airport | Hartsfield Jackson Atlanta International Airport (KATL) |
Arrival
| Time | 2026-04-24 22:45 |
|---|---|
| Airport | Owen Roberts International Airport (MWCR) |
| Time | Latitude | Longitude | Altitude | Speed | Heading |
|---|---|---|---|---|---|
| 2026-04-24 22:00 | 22.83127 | -81.04650 | 36001 ft | 442 kts | 201° |
| 2026-04-24 22:01 | 22.80236 | -81.05818 | 36004 ft | 442 kts | 200° |
| 2026-04-24 22:01 | 22.74482 | -81.08125 | 36003 ft | 442 kts | 200° |
| 2026-04-24 22:02 | 22.68684 | -81.10440 | 36003 ft | 443 kts | 200° |
| 2026-04-24 22:02 | 22.62908 | -81.12745 | 36004 ft | 444 kts | 200° |
| 2026-04-24 22:03 | 22.57100 | -81.15061 | 36002 ft | 446 kts | 200° |
| 2026-04-24 22:03 | 22.51279 | -81.17381 | 36004 ft | 447 kts | 200° |
| 2026-04-24 22:04 | 22.45446 | -81.19703 | 36001 ft | 448 kts | 200° |
| 2026-04-24 22:04 | 22.39567 | -81.22043 | 36000 ft | 449 kts | 200° |
| 2026-04-24 22:05 | 22.33741 | -81.24358 | 35998 ft | 450 kts | 200° |
| 2026-04-24 22:05 | 22.27865 | -81.26692 | 36000 ft | 450 kts | 200° |
| 2026-04-24 22:06 | 22.21973 | -81.29029 | 35998 ft | 449 kts | 200° |
| 2026-04-24 22:06 | 22.16115 | -81.31352 | 35999 ft | 449 kts | 200° |
| 2026-04-24 22:07 | 22.10286 | -81.33660 | 36001 ft | 448 kts | 200° |
| 2026-04-24 22:07 | 22.04435 | -81.35975 | 36000 ft | 447 kts | 200° |
| 2026-04-24 22:08 | 21.98601 | -81.38282 | 36001 ft | 446 kts | 200° |
| 2026-04-24 22:08 | 21.92782 | -81.40581 | 36005 ft | 445 kts | 200° |
| 2026-04-24 22:09 | 21.86969 | -81.42875 | 36002 ft | 445 kts | 200° |
| 2026-04-24 22:09 | 21.81176 | -81.45160 | 36002 ft | 445 kts | 200° |
| 2026-04-24 22:10 | 21.75368 | -81.47449 | 36003 ft | 445 kts | 200° |
| 2026-04-24 22:10 | 21.69530 | -81.49747 | 36000 ft | 445 kts | 200° |
| 2026-04-24 22:11 | 21.63706 | -81.52039 | 36003 ft | 445 kts | 200° |
| 2026-04-24 22:11 | 21.57790 | -81.53928 | 36005 ft | 445 kts | 191° |
| 2026-04-24 22:12 | 21.51670 | -81.55060 | 35995 ft | 446 kts | 189° |
| 2026-04-24 22:12 | 21.45548 | -81.56151 | 36002 ft | 447 kts | 189° |
| 2026-04-24 22:13 | 21.39443 | -81.57273 | 36002 ft | 447 kts | 190° |
| 2026-04-24 22:13 | 21.33300 | -81.58425 | 36000 ft | 448 kts | 190° |
| 2026-04-24 22:14 | 21.27179 | -81.59578 | 36002 ft | 448 kts | 190° |
| 2026-04-24 22:14 | 21.21017 | -81.60738 | 36003 ft | 448 kts | 190° |
| 2026-04-24 22:14 | 21.17926 | -81.61319 | 35746 ft | 452 kts | 190° |
| 2026-04-24 22:15 | 21.14874 | -81.61892 | 35425 ft | 448 kts | 190° |
| 2026-04-24 22:15 | 21.11816 | -81.62466 | 34984 ft | 443 kts | 190° |
| 2026-04-24 22:15 | 21.08778 | -81.63036 | 34585 ft | 439 kts | 190° |
| 2026-04-24 22:15 | 21.05808 | -81.63593 | 34166 ft | 435 kts | 190° |
| 2026-04-24 22:16 | 21.02813 | -81.64155 | 33744 ft | 431 kts | 190° |
| 2026-04-24 22:16 | 20.99883 | -81.64704 | 33341 ft | 428 kts | 190° |
| 2026-04-24 22:16 | 20.96982 | -81.65247 | 32937 ft | 424 kts | 190° |
| 2026-04-24 22:16 | 20.94071 | -81.65793 | 32528 ft | 421 kts | 190° |
| 2026-04-24 22:17 | 20.91193 | -81.66331 | 32128 ft | 418 kts | 190° |
| 2026-04-24 22:17 | 20.88349 | -81.66864 | 31728 ft | 414 kts | 190° |
| 2026-04-24 22:17 | 20.85517 | -81.67393 | 31333 ft | 411 kts | 190° |
| 2026-04-24 22:17 | 20.82731 | -81.67914 | 30938 ft | 408 kts | 190° |
| 2026-04-24 22:18 | 20.79933 | -81.68437 | 30556 ft | 405 kts | 190° |
| 2026-04-24 22:18 | 20.77157 | -81.68956 | 30171 ft | 402 kts | 190° |
| 2026-04-24 22:18 | 20.74433 | -81.69465 | 29791 ft | 399 kts | 190° |
| 2026-04-24 22:18 | 20.71719 | -81.69972 | 29409 ft | 396 kts | 190° |
| 2026-04-24 22:19 | 20.68996 | -81.70480 | 29015 ft | 393 kts | 190° |
| 2026-04-24 22:19 | 20.66332 | -81.70977 | 28629 ft | 390 kts | 190° |
| 2026-04-24 22:19 | 20.63665 | -81.71475 | 28244 ft | 387 kts | 190° |
| 2026-04-24 22:19 | 20.61017 | -81.71968 | 27862 ft | 384 kts | 190° |
| 2026-04-24 22:20 | 20.58422 | -81.72452 | 27488 ft | 381 kts | 190° |
| 2026-04-24 22:20 | 20.55807 | -81.72939 | 27103 ft | 378 kts | 190° |
| 2026-04-24 22:20 | 20.54091 | -81.73259 | 26876 ft | 376 kts | 190° |
| 2026-04-24 22:20 | 20.50676 | -81.73895 | 26376 ft | 372 kts | 190° |
| 2026-04-24 22:21 | 20.48977 | -81.74211 | 26134 ft | 370 kts | 190° |
| 2026-04-24 22:21 | 20.46434 | -81.74685 | 25770 ft | 368 kts | 190° |
| 2026-04-24 22:21 | 20.43943 | -81.75148 | 25414 ft | 365 kts | 190° |
| 2026-04-24 22:21 | 20.41437 | -81.75614 | 25055 ft | 362 kts | 190° |
| 2026-04-24 22:22 | 20.38979 | -81.76071 | 24704 ft | 360 kts | 190° |
| 2026-04-24 22:22 | 20.36511 | -81.76530 | 24350 ft | 357 kts | 190° |
| 2026-04-24 22:22 | 20.34086 | -81.76980 | 24002 ft | 354 kts | 190° |
| 2026-04-24 22:22 | 20.31653 | -81.77432 | 23652 ft | 352 kts | 190° |
| 2026-04-24 22:23 | 20.29259 | -81.77877 | 23307 ft | 350 kts | 190° |
| 2026-04-24 22:23 | 20.26865 | -81.78321 | 22961 ft | 347 kts | 190° |
| 2026-04-24 22:23 | 20.24510 | -81.78758 | 22624 ft | 345 kts | 190° |
| 2026-04-24 22:23 | 20.22141 | -81.79198 | 22365 ft | 340 kts | 190° |
| 2026-04-24 22:24 | 20.19835 | -81.79626 | 22047 ft | 337 kts | 190° |
| 2026-04-24 22:24 | 20.17526 | -81.80054 | 21722 ft | 335 kts | 190° |
| 2026-04-24 22:24 | 20.15258 | -81.80474 | 21400 ft | 332 kts | 190° |
| 2026-04-24 22:24 | 20.12971 | -81.80898 | 21073 ft | 330 kts | 190° |
| 2026-04-24 22:25 | 20.10712 | -81.81317 | 20757 ft | 328 kts | 190° |
| 2026-04-24 22:25 | 20.08489 | -81.81728 | 20452 ft | 326 kts | 190° |
| 2026-04-24 22:25 | 20.06242 | -81.82131 | 20139 ft | 326 kts | 186° |
| 2026-04-24 22:25 | 20.04010 | -81.81937 | 19834 ft | 328 kts | 162° |
| 2026-04-24 22:26 | 20.01986 | -81.80789 | 19531 ft | 337 kts | 139° |
| 2026-04-24 22:26 | 20.00528 | -81.78816 | 19252 ft | 341 kts | 115° |
| 2026-04-24 22:26 | 19.99941 | -81.76416 | 18912 ft | 339 kts | 93° |
| 2026-04-24 22:26 | 19.99893 | -81.73919 | 18593 ft | 336 kts | 90° |
| 2026-04-24 22:27 | 19.99919 | -81.71424 | 18241 ft | 334 kts | 89° |
| 2026-04-24 22:27 | 19.99954 | -81.68988 | 17909 ft | 332 kts | 89° |
| 2026-04-24 22:27 | 19.99981 | -81.66523 | 17575 ft | 330 kts | 89° |
| 2026-04-24 22:27 | 19.99998 | -81.64108 | 17247 ft | 328 kts | 90° |
| 2026-04-24 22:28 | 20.00006 | -81.61684 | 16914 ft | 326 kts | 90° |
| 2026-04-24 22:28 | 20.00010 | -81.59307 | 16590 ft | 324 kts | 90° |
| 2026-04-24 22:28 | 20.00011 | -81.56922 | 16379 ft | 318 kts | 90° |
| 2026-04-24 22:28 | 20.00010 | -81.54572 | 16070 ft | 316 kts | 90° |
| 2026-04-24 22:29 | 20.00008 | -81.49952 | 15460 ft | 311 kts | 90° |
| 2026-04-24 22:29 | 20.00006 | -81.47645 | 15150 ft | 310 kts | 90° |
| 2026-04-24 22:29 | 19.99756 | -81.45413 | 14816 ft | 308 kts | 110° |
| 2026-04-24 22:30 | 19.98676 | -81.43480 | 14526 ft | 304 kts | 135° |
| 2026-04-24 22:30 | 19.96967 | -81.42199 | 14248 ft | 303 kts | 157° |
| 2026-04-24 22:30 | 19.94897 | -81.41642 | 13957 ft | 308 kts | 174° |
| 2026-04-24 22:30 | 19.92764 | -81.41456 | 13720 ft | 313 kts | 177° |
| 2026-04-24 22:31 | 19.90569 | -81.41330 | 13301 ft | 318 kts | 177° |
| 2026-04-24 22:31 | 19.88366 | -81.41213 | 12998 ft | 315 kts | 177° |
| 2026-04-24 22:31 | 19.86209 | -81.41092 | 12742 ft | 310 kts | 177° |
| 2026-04-24 22:31 | 19.84079 | -81.40963 | 12505 ft | 305 kts | 177° |
| 2026-04-24 22:32 | 19.81962 | -81.40828 | 12274 ft | 301 kts | 177° |
| 2026-04-24 22:32 | 19.79886 | -81.40691 | 12020 ft | 297 kts | 176° |
| 2026-04-24 22:32 | 19.77828 | -81.40553 | 11773 ft | 293 kts | 176° |
| 2026-04-24 22:32 | 19.75819 | -81.40417 | 11510 ft | 290 kts | 176° |
| 2026-04-24 22:33 | 19.73806 | -81.40279 | 11255 ft | 287 kts | 176° |
| 2026-04-24 22:33 | 19.71837 | -81.40145 | 11038 ft | 283 kts | 176° |
| 2026-04-24 22:33 | 19.69871 | -81.40010 | 10826 ft | 281 kts | 176° |
| 2026-04-24 22:33 | 19.67927 | -81.39876 | 10609 ft | 283 kts | 176° |
| 2026-04-24 22:34 | 19.65955 | -81.39741 | 10399 ft | 289 kts | 176° |
| 2026-04-24 22:34 | 19.63924 | -81.39602 | 10320 ft | 293 kts | 176° |
| 2026-04-24 22:34 | 19.61899 | -81.39462 | 10180 ft | 287 kts | 176° |
| 2026-04-24 22:34 | 19.59923 | -81.39326 | 9992 ft | 281 kts | 176° |
| 2026-04-24 22:35 | 19.58000 | -81.39194 | 9707 ft | 280 kts | 176° |
| 2026-04-24 22:35 | 19.56083 | -81.38873 | 9424 ft | 278 kts | 156° |
| 2026-04-24 22:35 | 19.54598 | -81.37631 | 9161 ft | 275 kts | 125° |
| 2026-04-24 22:35 | 19.53834 | -81.35807 | 8867 ft | 274 kts | 101° |
| 2026-04-24 22:36 | 19.53595 | -81.33791 | 8573 ft | 273 kts | 96° |
| 2026-04-24 22:36 | 19.53341 | -81.31813 | 8278 ft | 272 kts | 100° |
| 2026-04-24 22:36 | 19.52946 | -81.29869 | 7995 ft | 271 kts | 105° |
| 2026-04-24 22:36 | 19.52376 | -81.27960 | 7721 ft | 270 kts | 110° |
| 2026-04-24 22:37 | 19.51646 | -81.26117 | 7438 ft | 269 kts | 115° |
| 2026-04-24 22:37 | 19.50800 | -81.24376 | 7148 ft | 268 kts | 120° |
| 2026-04-24 22:37 | 19.49830 | -81.22690 | 6884 ft | 266 kts | 124° |
| 2026-04-24 22:37 | 19.48767 | -81.21103 | 6610 ft | 265 kts | 128° |
| 2026-04-24 22:38 | 19.47588 | -81.19590 | 6333 ft | 264 kts | 132° |
| 2026-04-24 22:38 | 19.46314 | -81.18181 | 6060 ft | 263 kts | 136° |
| 2026-04-24 22:38 | 19.44970 | -81.16899 | 5787 ft | 262 kts | 140° |
| 2026-04-24 22:38 | 19.43529 | -81.15715 | 5514 ft | 261 kts | 144° |
| 2026-04-24 22:39 | 19.42030 | -81.14659 | 5245 ft | 260 kts | 149° |
| 2026-04-24 22:39 | 19.40453 | -81.13714 | 4972 ft | 258 kts | 153° |
| 2026-04-24 22:39 | 19.38844 | -81.12905 | 4705 ft | 257 kts | 157° |
| 2026-04-24 22:39 | 19.37126 | -81.12383 | 4401 ft | 256 kts | 180° |
| 2026-04-24 22:40 | 19.35438 | -81.12854 | 4167 ft | 251 kts | 214° |
| 2026-04-24 22:40 | 19.34360 | -81.14207 | 4003 ft | 243 kts | 249° |
| 2026-04-24 22:40 | 19.33904 | -81.15914 | 3878 ft | 236 kts | 257° |
| 2026-04-24 22:40 | 19.33546 | -81.17571 | 3770 ft | 230 kts | 257° |
| 2026-04-24 22:41 | 19.33189 | -81.19180 | 3714 ft | 217 kts | 257° |
| 2026-04-24 22:41 | 19.32977 | -81.20737 | 3304 ft | 218 kts | 264° |
| 2026-04-24 22:41 | 19.32738 | -81.22336 | 2624 ft | 223 kts | 258° |
| 2026-04-24 22:41 | 19.32390 | -81.23954 | 2032 ft | 222 kts | 257° |
| 2026-04-24 22:42 | 19.32014 | -81.25453 | 1803 ft | 204 kts | 254° |
| 2026-04-24 22:42 | 19.31643 | -81.26842 | 1648 ft | 187 kts | 254° |
| 2026-04-24 22:42 | 19.31302 | -81.28134 | 1469 ft | 178 kts | 255° |
| 2026-04-24 22:42 | 19.30976 | -81.29375 | 1233 ft | 173 kts | 255° |
| 2026-04-24 22:43 | 19.30665 | -81.30568 | 1009 ft | 162 kts | 255° |
| 2026-04-24 22:43 | 19.30568 | -81.30938 | 935 ft | 158 kts | 255° |
| 2026-04-24 22:43 | 19.30425 | -81.31485 | 874 ft | 154 kts | 255° |
| 2026-04-24 22:43 | 19.30141 | -81.32578 | 657 ft | 155 kts | 254° |
| 2026-04-24 22:44 | 19.29812 | -81.33669 | 387 ft | 155 kts | 252° |
| 2026-04-24 22:44 | 19.29517 | -81.34747 | 94 ft | 151 kts | 257° |
| 2026-04-24 22:44 | 19.29283 | -81.35759 | 24 ft | 127 kts | 256° |
| 2026-04-24 22:44 | 19.29116 | -81.36441 | 23 ft | 65 kts | 256° |
| 2026-04-24 22:45 | 19.29050 | -81.36734 | 22 ft | 30 kts | 256° |
| 2026-04-24 22:45 | 19.29012 | -81.36910 | 22 ft | 15 kts | 265° |
| 2026-04-24 22:45 | 19.29058 | -81.36963 | 22 ft | 8 kts | 308° |
| 2026-04-24 22:45 | 19.29050 | -81.37014 | 24 ft | 8 kts | 207° |
| 2026-04-24 22:46 | 19.29002 | -81.36998 | 22 ft | 8 kts | 127° |
| 2026-04-24 22:46 | 19.29013 | -81.36942 | 22 ft | 0 kts | 51° |
| 2026-04-24 22:46 | 19.29012 | -81.36940 | 22 ft | 0 kts | 67° |
| 2026-04-24 22:46 | 19.29029 | -81.36840 | 22 ft | 23 kts | 75° |
| 2026-04-24 22:47 | 19.29046 | -81.36759 | 22 ft | 2 kts | 72° |
| 2026-04-24 22:47 | 19.29057 | -81.36719 | 22 ft | 9 kts | 78° |
| 2026-04-24 22:47 | 19.29079 | -81.36597 | 23 ft | 24 kts | 74° |
| 2026-04-24 22:47 | 19.29133 | -81.36394 | 23 ft | 28 kts | 75° |
| 2026-04-24 22:48 | 19.29183 | -81.36172 | 24 ft | 33 kts | 75° |
| 2026-04-24 22:48 | 19.29239 | -81.35940 | 23 ft | 32 kts | 76° |
| 2026-04-24 22:48 | 19.29299 | -81.35798 | 21 ft | 10 kts | 9° |
| 2026-04-24 22:48 | 19.29364 | -81.35811 | 21 ft | 10 kts | 346° |
| 2026-04-24 22:49 | 19.29411 | -81.35839 | 21 ft | 8 kts | 296° |
| 2026-04-24 22:49 | 19.29433 | -81.35868 | 21 ft | 0 kts | 335° |
| 2026-04-24 22:49 | 19.29440 | -81.35871 | 21 ft | 2 kts | 341° |
| 2026-04-24 22:49 | 19.29462 | -81.35876 | 21 ft | 6 kts | 346° |
| 2026-04-24 22:50 | 19.29483 | -81.35881 | 23 ft | 0 kts | 346° |
| 2026-04-24 22:51 | 19.29489 | -81.35883 | 24 ft | 0 kts | 346° |
| 2026-04-24 22:52 | 19.29488 | -81.35883 | 24 ft | 0 kts | 346° |
| 2026-04-24 22:52 | 19.29482 | -81.35881 | 23 ft | 0 kts | 346° |
| 2026-04-24 22:52 | 19.29488 | -81.35883 | 24 ft | 0 kts | 346° |
| 2026-04-24 22:52 | 19.29487 | -81.35882 | 24 ft | 0 kts | 346° |